Time;durP1;ratioP1;P1;durP2;ratioP2;P2;SDS_P1;SDS_P2;PMS_P1;PMS_P2;Temp;Humidity;BMP_temperature;BMP_pressure;BME280_temperature;BME280_humidity;BME280_pressure;Samples;Min_cycle;Max_cycle;Signal;HPM_P1;HPM_P2
2023/08/01 00:00:35;;;;;;;;;;;21.00;91.60;;;;;;4169835;28;19965;-48
2023/08/01 00:03:17;;;;;;;;;;;21.00;91.60;;;;;;4160350;28;20347;-50
2023/08/01 00:05:59;;;;;;;;;;;21.00;91.60;;;;;;4172807;28;19952;-49
2023/08/01 00:08:39;;;;;;;;;;;21.00;91.60;;;;;;4172063;28;19935;-47
2023/08/01 00:11:20;;;;;;;;;;;21.00;91.60;;;;;;4188832;28;20451;-50
2023/08/01 00:14:01;;;;;;;;;;;21.00;91.60;;;;;;4189288;28;19932;-49
2023/08/01 00:16:42;;;;;;;;;;;21.00;91.60;;;;;;4175018;28;19935;-47
2023/08/01 00:19:24;;;;;;;;;;;21.00;91.60;;;;;;4157088;28;19998;-49
2023/08/01 00:22:06;;;;;;;;;;;21.00;91.60;;;;;;4172772;28;20075;-49
2023/08/01 00:24:47;;;;;;;;;;;21.00;91.60;;;;;;4172406;28;20006;-50
2023/08/01 00:27:28;;;;;;;;;;;21.00;91.60;;;;;;4160493;28;20009;-49
2023/08/01 00:30:09;;;;;;;;;;;20.90;91.50;;;;;;4171713;28;20291;-48
2023/08/01 00:32:50;;;;;;;;;;;20.90;91.50;;;;;;4166301;28;19931;-49
2023/08/01 00:35:32;;;;;;;;;;;20.90;91.50;;;;;;4171601;28;19936;-49
2023/08/01 00:38:12;;;;;;;;;;;20.90;92.00;;;;;;4169276;28;19950;-46
2023/08/01 00:40:53;;;;;;;;;;;20.90;91.60;;;;;;4171533;28;19986;-48
2023/08/01 00:43:34;;;;;;;;;;;20.90;91.60;;;;;;4171386;28;19932;-49
2023/08/01 00:46:14;;;;;;;;;;;20.90;91.60;;;;;;4157726;28;19931;-48
2023/08/01 00:48:57;;;;;;;;;;;20.90;91.60;;;;;;4165927;28;20024;-49
2023/08/01 00:51:39;;;;;;;;;;;20.90;91.60;;;;;;4172144;28;19943;-49
2023/08/01 00:54:20;;;;;;;;;;;20.90;91.60;;;;;;4182367;28;20272;-48
2023/08/01 00:57:01;;;;;;;;;;;20.90;91.60;;;;;;4159179;28;19932;-49
2023/08/01 00:59:42;;;;;;;;;;;20.90;91.60;;;;;;4171769;28;19935;-49
2023/08/01 01:02:23;;;;;;;;;;;20.90;91.60;;;;;;4170017;28;19981;-50
2023/08/01 01:05:05;;;;;;;;;;;20.90;91.60;;;;;;4152700;28;19982;-48
2023/08/01 01:07:47;;;;;;;;;;;20.90;91.60;;;;;;4173173;28;19932;-50
2023/08/01 01:10:28;;;;;;;;;;;20.90;91.50;;;;;;4171654;28;19936;-49
2023/08/01 01:13:08;;;;;;;;;;;20.90;91.50;;;;;;4171619;28;20070;-48
2023/08/01 01:15:49;;;;;;;;;;;20.90;91.50;;;;;;4180819;28;20051;-49
2023/08/01 01:18:30;;;;;;;;;;;20.90;91.50;;;;;;4170963;28;20069;-50
2023/08/01 01:21:12;;;;;;;;;;;20.90;91.50;;;;;;4154830;28;20407;-49
2023/08/01 01:23:53;;;;;;;;;;;20.90;91.50;;;;;;4159975;28;19935;-51
2023/08/01 01:26:34;;;;;;;;;;;20.90;91.50;;;;;;4158669;28;20102;-49
2023/08/01 01:29:15;;;;;;;;;;;20.90;91.50;;;;;;4171577;28;19931;-49
2023/08/01 01:31:56;;;;;;;;;;;20.90;91.50;;;;;;4156555;28;20062;-49
2023/08/01 01:34:36;;;;;;;;;;;20.90;91.50;;;;;;4155274;28;19984;-49
2023/08/01 01:37:19;;;;;;;;;;;20.80;91.40;;;;;;4142326;28;20392;-49
2023/08/01 01:40:00;;;;;;;;;;;20.80;91.50;;;;;;4184218;28;19936;-49
2023/08/01 01:42:41;;;;;;;;;;;20.80;91.40;;;;;;4187566;28;20488;-49
2023/08/01 01:45:21;;;;;;;;;;;20.90;91.90;;;;;;4175211;28;20276;-49
2023/08/01 01:48:02;;;;;;;;;;;20.90;91.50;;;;;;4175029;28;19977;-50
2023/08/01 01:50:43;;;;;;;;;;;20.80;91.40;;;;;;4185624;28;19935;-53
2023/08/01 01:53:26;;;;;;;;;;;20.90;91.50;;;;;;4170384;28;19983;-50
2023/08/01 01:56:06;;;;;;;;;;;20.90;91.40;;;;;;4163525;28;20164;-50
2023/08/01 01:58:47;;;;;;;;;;;20.80;91.40;;;;;;4186791;28;19979;-49
2023/08/01 02:01:28;;;;;;;;;;;20.80;91.40;;;;;;4174701;28;20296;-53
2023/08/01 02:04:09;;;;;;;;;;;20.80;91.80;;;;;;4161361;28;20241;-52
2023/08/01 02:06:50;;;;;;;;;;;20.80;91.40;;;;;;4169612;28;19932;-48
2023/08/01 02:09:32;;;;;;;;;;;20.80;91.40;;;;;;4180997;28;19931;-50
2023/08/01 02:12:14;;;;;;;;;;;20.80;91.70;;;;;;4157132;28;19997;-49
2023/08/01 02:14:55;;;;;;;;;;;20.80;91.30;;;;;;4168078;28;20058;-49
2023/08/01 02:17:36;;;;;;;;;;;20.80;91.30;;;;;;4186542;28;20436;-49
2023/08/01 02:20:17;;;;;;;;;;;20.80;91.30;;;;;;4174691;28;20694;-49
2023/08/01 02:22:58;;;;;;;;;;;20.80;91.30;;;;;;4174807;28;19939;-49
2023/08/01 02:25:41;;;;;;;;;;;20.80;91.30;;;;;;4163433;28;19935;-50
2023/08/01 02:28:22;;;;;;;;;;;20.80;91.30;;;;;;4157428;28;19933;-50
2023/08/01 02:31:03;;;;;;;;;;;20.80;91.20;;;;;;4170375;28;20005;-49
2023/08/01 02:33:43;;;;;;;;;;;20.80;91.20;;;;;;4170027;28;19936;-49
2023/08/01 02:36:24;;;;;;;;;;;20.80;91.20;;;;;;4168769;28;19951;-49
2023/08/01 02:39:05;;;;;;;;;;;20.80;91.20;;;;;;4170102;28;19992;-50
2023/08/01 02:41:47;;;;;;;;;;;20.80;91.20;;;;;;4162159;28;19982;-50
2023/08/01 02:44:28;;;;;;;;;;;20.80;91.20;;;;;;4170192;28;19932;-49
2023/08/01 02:47:09;;;;;;;;;;;20.70;91.10;;;;;;4170083;28;19936;-51
2023/08/01 02:49:50;;;;;;;;;;;20.80;91.20;;;;;;4179300;28;19936;-50
2023/08/01 02:52:31;;;;;;;;;;;20.70;91.10;;;;;;4170019;28;19932;-47
2023/08/01 02:55:12;;;;;;;;;;;20.70;91.50;;;;;;4153037;28;20406;-48
2023/08/01 02:57:54;;;;;;;;;;;20.80;91.20;;;;;;4169457;28;19951;-50
2023/08/01 03:00:38;;;;;;;;;;;20.80;91.10;;;;;;4168085;28;19971;-53
2023/08/01 03:03:19;;;;;;;;;;;20.70;91.10;;;;;;4169716;28;20441;-49
2023/08/01 03:06:01;;;;;;;;;;;20.80;91.10;;;;;;4170956;28;19936;-53
2023/08/01 03:08:42;;;;;;;;;;;20.70;91.50;;;;;;4170756;28;19931;-52
2023/08/01 03:11:23;;;;;;;;;;;20.70;91.10;;;;;;4170729;28;19932;-52
2023/08/01 03:14:05;;;;;;;;;;;20.70;91.10;;;;;;4163199;28;19936;-49
2023/08/01 03:16:46;;;;;;;;;;;20.70;91.10;;;;;;4123356;28;19979;-49
2023/08/01 03:19:27;;;;;;;;;;;20.70;91.00;;;;;;4136833;28;19932;-49
2023/08/01 03:22:07;;;;;;;;;;;20.70;91.00;;;;;;4136965;28;20039;-48
2023/08/01 03:24:48;;;;;;;;;;;20.70;91.00;;;;;;4153717;28;19960;-48
2023/08/01 03:27:29;;;;;;;;;;;20.70;91.40;;;;;;4153278;28;19936;-50
2023/08/01 03:30:11;;;;;;;;;;;20.70;91.00;;;;;;4158267;28;19951;-49
2023/08/01 03:32:52;;;;;;;;;;;20.70;91.00;;;;;;4169452;28;19932;-48
2023/08/01 03:35:33;;;;;;;;;;;20.70;91.00;;;;;;4124867;28;19976;-53
2023/08/01 03:38:14;;;;;;;;;;;20.70;91.40;;;;;;4135227;28;19937;-49
2023/08/01 03:40:54;;;;;;;;;;;20.70;91.00;;;;;;4140215;28;19933;-50
2023/08/01 03:43:35;;;;;;;;;;;20.60;91.00;;;;;;4140005;28;20296;-49
2023/08/01 03:46:17;;;;;;;;;;;20.70;91.00;;;;;;4151007;28;19994;-50
2023/08/01 03:48:58;;;;;;;;;;;20.70;91.00;;;;;;4172830;28;20478;-50
2023/08/01 03:51:38;;;;;;;;;;;20.70;91.00;;;;;;4173289;28;19983;-49
2023/08/01 03:54:19;;;;;;;;;;;20.70;91.00;;;;;;4171459;28;19932;-48
2023/08/01 03:57:00;;;;;;;;;;;20.60;91.00;;;;;;4182252;28;19935;-48
2023/08/01 03:59:42;;;;;;;;;;;20.60;91.00;;;;;;4172437;28;19935;-48
2023/08/01 04:02:24;;;;;;;;;;;20.60;91.00;;;;;;4173129;28;20395;-49
2023/08/01 04:05:05;;;;;;;;;;;20.60;91.00;;;;;;4140042;28;19933;-48
2023/08/01 04:07:46;;;;;;;;;;;20.60;91.00;;;;;;4138969;28;20067;-49
2023/08/01 04:10:27;;;;;;;;;;;20.60;91.00;;;;;;4153448;28;19936;-47
2023/08/01 04:13:08;;;;;;;;;;;20.60;91.00;;;;;;4156588;28;19932;-49
2023/08/01 04:15:48;;;;;;;;;;;20.60;91.10;;;;;;4155756;28;20387;-48
2023/08/01 04:18:30;;;;;;;;;;;20.60;91.50;;;;;;4156125;28;19972;-47
2023/08/01 04:21:13;;;;;;;;;;;20.60;91.10;;;;;;4142107;28;19936;-48
2023/08/01 04:23:54;;;;;;;;;;;20.60;91.10;;;;;;4154668;28;19940;-48
2023/08/01 04:26:36;;;;;;;;;;;20.60;91.10;;;;;;4155921;28;19936;-50
2023/08/01 04:29:18;;;;;;;;;;;20.50;91.00;;;;;;4154825;28;19936;-48
2023/08/01 04:31:58;;;;;;;;;;;20.60;91.10;;;;;;4172127;28;19988;-48
2023/08/01 04:34:41;;;;;;;;;;;20.50;91.00;;;;;;4171559;28;19931;-48
2023/08/01 04:37:22;;;;;;;;;;;20.50;91.00;;;;;;4177341;28;20014;-48
2023/08/01 04:40:03;;;;;;;;;;;20.60;91.10;;;;;;4155580;28;19936;-47
2023/08/01 04:42:45;;;;;;;;;;;20.60;91.10;;;;;;4154969;28;20023;-47
2023/08/01 04:45:26;;;;;;;;;;;20.60;91.10;;;;;;4155452;28;19940;-57
2023/08/01 04:48:07;;;;;;;;;;;20.50;91.00;;;;;;4155577;28;19943;-47
2023/08/01 04:50:49;;;;;;;;;;;20.60;91.20;;;;;;4153301;28;19974;-48
2023/08/01 04:53:30;;;;;;;;;;;20.60;91.30;;;;;;4154378;28;19932;-50
2023/08/01 04:56:10;;;;;;;;;;;20.60;91.30;;;;;;4152727;28;19994;-48
2023/08/01 04:58:51;;;;;;;;;;;20.70;91.70;;;;;;4153849;28;20115;-49
2023/08/01 05:01:32;;;;;;;;;;;20.70;91.20;;;;;;4156219;28;19978;-47
2023/08/01 05:04:13;;;;;;;;;;;20.60;91.20;;;;;;4155412;28;20343;-48
2023/08/01 05:06:55;;;;;;;;;;;20.60;91.20;;;;;;4155264;28;19932;-50
2023/08/01 05:09:36;;;;;;;;;;;20.60;91.10;;;;;;4154774;28;19936;-48
2023/08/01 05:12:16;;;;;;;;;;;20.60;91.10;;;;;;4138960;28;19972;-48
2023/08/01 05:14:57;;;;;;;;;;;20.60;91.10;;;;;;4139131;28;20289;-48
2023/08/01 05:17:37;;;;;;;;;;;20.70;91.10;;;;;;4167492;28;19967;-49
2023/08/01 05:20:18;;;;;;;;;;;20.60;91.00;;;;;;4155985;28;20018;-48
2023/08/01 05:23:00;;;;;;;;;;;20.70;91.00;;;;;;4155372;28;19936;-50
2023/08/01 05:25:41;;;;;;;;;;;20.70;90.90;;;;;;4155084;28;19932;-48
2023/08/01 05:28:21;;;;;;;;;;;20.70;90.90;;;;;;4154984;28;19970;-49
2023/08/01 05:31:02;;;;;;;;;;;20.70;90.90;;;;;;4155199;28;19932;-48
2023/08/01 05:33:43;;;;;;;;;;;20.80;90.80;;;;;;4154395;28;19936;-48
2023/08/01 05:36:24;;;;;;;;;;;20.80;90.70;;;;;;4155378;28;19953;-47
2023/08/01 05:39:06;;;;;;;;;;;20.90;90.70;;;;;;4154670;28;19948;-48
2023/08/01 05:41:46;;;;;;;;;;;20.90;90.60;;;;;;4155482;28;19931;-47
2023/08/01 05:44:27;;;;;;;;;;;20.90;90.50;;;;;;4155276;28;19978;-48
2023/08/01 05:47:08;;;;;;;;;;;20.90;90.40;;;;;;4155894;28;20294;-49
2023/08/01 05:49:49;;;;;;;;;;;20.90;90.40;;;;;;4150243;28;19932;-48
2023/08/01 05:52:30;;;;;;;;;;;20.90;90.70;;;;;;4154879;28;19979;-53
2023/08/01 05:55:16;;;;;;;;;;;20.90;90.30;;;;;;4165869;28;19936;-49
2023/08/01 05:57:56;;;;;;;;;;;20.90;90.30;;;;;;4142983;28;19952;-49
2023/08/01 06:00:37;;;;;;;;;;;20.80;90.30;;;;;;4154821;28;19931;-50
2023/08/01 06:03:18;;;;;;;;;;;20.80;90.30;;;;;;4154931;28;20296;-48
2023/08/01 06:05:59;;;;;;;;;;;20.70;90.40;;;;;;4146139;28;20367;-48
2023/08/01 06:08:40;;;;;;;;;;;20.70;90.50;;;;;;4166670;28;20295;-48
2023/08/01 06:11:22;;;;;;;;;;;20.80;90.50;;;;;;4171009;28;20025;-47
2023/08/01 06:14:04;;;;;;;;;;;20.70;90.50;;;;;;4193679;28;19931;-48
2023/08/01 06:16:45;;;;;;;;;;;20.70;90.40;;;;;;4171407;28;19951;-48
2023/08/01 06:19:25;;;;;;;;;;;20.70;90.40;;;;;;4171241;28;19975;-52
2023/08/01 06:22:06;;;;;;;;;;;20.70;90.40;;;;;;4171006;28;19932;-51
2023/08/01 06:24:47;;;;;;;;;;;20.70;90.80;;;;;;4171600;28;20018;-48
2023/08/01 06:27:30;;;;;;;;;;;20.70;90.30;;;;;;4171459;28;19935;-49
2023/08/01 06:30:11;;;;;;;;;;;20.70;90.40;;;;;;4155780;28;20413;-48
2023/08/01 06:32:52;;;;;;;;;;;20.70;90.80;;;;;;4170513;28;20009;-49
2023/08/01 06:35:32;;;;;;;;;;;20.60;90.40;;;;;;4170241;28;19936;-48
2023/08/01 06:38:13;;;;;;;;;;;20.60;90.50;;;;;;4169807;28;19932;-49
2023/08/01 06:40:54;;;;;;;;;;;20.60;90.60;;;;;;4171041;28;20417;-49
2023/08/01 06:43:37;;;;;;;;;;;20.60;90.60;;;;;;4171009;28;20341;-48
2023/08/01 06:46:17;;;;;;;;;;;20.60;90.70;;;;;;4193108;28;19932;-47
2023/08/01 06:48:58;;;;;;;;;;;20.60;90.60;;;;;;4170724;28;19959;-50
2023/08/01 06:51:39;;;;;;;;;;;20.60;90.60;;;;;;4170148;28;19931;-50
2023/08/01 06:54:19;;;;;;;;;;;20.60;90.60;;;;;;4170767;28;19931;-57
2023/08/01 06:57:00;;;;;;;;;;;20.60;90.70;;;;;;4170567;28;20300;-50
2023/08/01 06:59:43;;;;;;;;;;;20.60;91.30;;;;;;4170472;28;19975;-53
2023/08/01 07:02:25;;;;;;;;;;;20.60;90.90;;;;;;4169854;28;19931;-49
2023/08/01 07:05:06;;;;;;;;;;;20.60;90.90;;;;;;4170390;28;20062;-49
2023/08/01 07:07:46;;;;;;;;;;;20.60;90.80;;;;;;4170342;28;20241;-48
2023/08/01 07:10:27;;;;;;;;;;;20.60;90.90;;;;;;4169848;28;20299;-49
2023/08/01 07:13:08;;;;;;;;;;;20.60;90.90;;;;;;4153293;28;19959;-54
2023/08/01 07:15:50;;;;;;;;;;;20.60;90.80;;;;;;4174088;28;20674;-50
2023/08/01 07:18:31;;;;;;;;;;;20.60;90.80;;;;;;4173409;28;20407;-50
2023/08/01 07:21:11;;;;;;;;;;;20.60;90.80;;;;;;4172670;28;19936;-48
2023/08/01 07:23:52;;;;;;;;;;;20.60;90.70;;;;;;4173467;28;19975;-48
2023/08/01 07:26:32;;;;;;;;;;;20.60;91.10;;;;;;4173207;28;19974;-49
2023/08/01 07:29:15;;;;;;;;;;;20.50;90.70;;;;;;4173290;28;19936;-48
2023/08/01 07:31:57;;;;;;;;;;;20.50;90.70;;;;;;4173534;28;20041;-49
2023/08/01 07:34:38;;;;;;;;;;;20.50;91.00;;;;;;4173278;28;19935;-47
2023/08/01 07:37:19;;;;;;;;;;;20.50;90.60;;;;;;4170048;28;20017;-52
2023/08/01 07:40:00;;;;;;;;;;;20.50;90.70;;;;;;4157940;28;19970;-50
2023/08/01 07:42:41;;;;;;;;;;;20.60;90.80;;;;;;4156322;28;19936;-48
2023/08/01 07:45:22;;;;;;;;;;;20.60;90.80;;;;;;4156456;28;19932;-51
2023/08/01 07:48:04;;;;;;;;;;;20.70;90.90;;;;;;4155568;28;20296;-49
2023/08/01 07:50:45;;;;;;;;;;;20.70;91.10;;;;;;4156265;28;20349;-53
2023/08/01 07:53:26;;;;;;;;;;;20.80;90.70;;;;;;4169977;28;19932;-55
2023/08/01 07:56:08;;;;;;;;;;;20.80;90.70;;;;;;4172144;28;20530;-56
2023/08/01 07:58:49;;;;;;;;;;;20.80;91.10;;;;;;4172486;28;20391;-55
2023/08/01 08:01:30;;;;;;;;;;;20.80;90.70;;;;;;4171268;28;20391;-55
2023/08/01 08:04:14;;;;;;;;;;;20.80;90.60;;;;;;4178634;28;19936;-55
2023/08/01 08:06:54;;;;;;;;;;;20.80;90.50;;;;;;4173123;28;20009;-54
2023/08/01 08:09:35;;;;;;;;;;;20.80;90.60;;;;;;4151391;28;19935;-53
2023/08/01 08:12:16;;;;;;;;;;;20.80;90.60;;;;;;4172536;28;19932;-51
2023/08/01 08:14:56;;;;;;;;;;;20.80;90.60;;;;;;4172078;28;19940;-55
2023/08/01 08:17:37;;;;;;;;;;;20.80;90.60;;;;;;4172218;28;19981;-52
2023/08/01 08:20:19;;;;;;;;;;;20.80;90.60;;;;;;4170656;28;19932;-50
2023/08/01 08:23:00;;;;;;;;;;;20.90;90.60;;;;;;4172056;28;20037;-55
2023/08/01 08:25:41;;;;;;;;;;;20.90;90.70;;;;;;4172100;28;19932;-54
2023/08/01 08:28:28;;;;;;;;;;;20.90;90.70;;;;;;4171874;28;19936;-52
2023/08/01 08:31:09;;;;;;;;;;;21.00;90.90;;;;;;4172443;28;19951;-54
2023/08/01 08:33:50;;;;;;;;;;;21.00;90.90;;;;;;4160813;28;19936;-54
2023/08/01 08:36:32;;;;;;;;;;;21.00;90.70;;;;;;4157170;28;20487;-50
2023/08/01 08:39:13;;;;;;;;;;;21.00;90.50;;;;;;4157685;28;20391;-49
2023/08/01 08:41:53;;;;;;;;;;;21.00;90.40;;;;;;4156031;28;19931;-53
2023/08/01 08:44:35;;;;;;;;;;;21.00;90.30;;;;;;4156440;28;20425;-49
2023/08/01 08:47:18;;;;;;;;;;;21.00;90.70;;;;;;4172217;28;20021;-50
2023/08/01 08:49:58;;;;;;;;;;;20.90;90.20;;;;;;4172368;28;20367;-53
2023/08/01 08:52:41;;;;;;;;;;;21.00;90.20;;;;;;4171685;28;19935;-54
2023/08/01 08:55:22;;;;;;;;;;;20.90;90.10;;;;;;4171747;28;20379;-52
2023/08/01 08:58:02;;;;;;;;;;;20.90;90.20;;;;;;4169253;28;20288;-54
2023/08/01 09:00:44;;;;;;;;;;;20.90;90.30;;;;;;4171358;28;20067;-50
2023/08/01 09:03:25;;;;;;;;;;;20.90;90.40;;;;;;4152394;28;20225;-53
2023/08/01 09:06:08;;;;;;;;;;;20.90;90.50;;;;;;4155150;28;19936;-49
2023/08/01 09:08:52;;;;;;;;;;;20.90;90.50;;;;;;4154674;28;20075;-51
2023/08/01 09:11:39;;;;;;;;;;;20.90;90.40;;;;;;4165538;28;19935;-50
2023/08/01 09:14:20;;;;;;;;;;;20.90;90.30;;;;;;4171885;28;20380;-50
2023/08/01 09:17:06;;;;;;;;;;;20.90;90.20;;;;;;4158893;28;19931;-50
2023/08/01 09:19:47;;;;;;;;;;;20.90;90.20;;;;;;4156640;28;20458;-51
2023/08/01 09:22:28;;;;;;;;;;;20.90;90.20;;;;;;4171625;28;19932;-52
2023/08/01 09:25:10;;;;;;;;;;;21.00;90.20;;;;;;4172323;28;20330;-48
2023/08/01 09:27:50;;;;;;;;;;;21.00;90.20;;;;;;4153337;28;20292;-53
2023/08/01 09:30:31;;;;;;;;;;;21.10;90.20;;;;;;4161901;28;19940;-52
2023/08/01 09:33:12;;;;;;;;;;;21.10;90.20;;;;;;4154027;28;20067;-56
2023/08/01 09:35:53;;;;;;;;;;;21.10;90.10;;;;;;4149868;28;19932;-53
2023/08/01 09:38:34;;;;;;;;;;;21.10;90.50;;;;;;4156560;28;20002;-59
2023/08/01 09:41:19;;;;;;;;;;;21.10;90.10;;;;;;4159661;28;20017;-51
2023/08/01 09:44:00;;;;;;;;;;;21.10;90.10;;;;;;4170042;28;20010;-51
2023/08/01 09:46:40;;;;;;;;;;;21.20;90.10;;;;;;4170084;28;20345;-50
2023/08/01 09:49:21;;;;;;;;;;;21.20;90.20;;;;;;4170925;28;19935;-50
2023/08/01 09:52:02;;;;;;;;;;;21.20;90.20;;;;;;4187461;28;19932;-49
2023/08/01 09:54:43;;;;;;;;;;;21.20;90.30;;;;;;4187429;28;19931;-59
2023/08/01 09:57:27;;;;;;;;;;;21.20;90.40;;;;;;4187422;28;19936;-58
2023/08/01 10:00:09;;;;;;;;;;;21.20;90.30;;;;;;4154175;28;20307;-58
2023/08/01 10:02:53;;;;;;;;;;;21.20;90.20;;;;;;4166601;28;19932;-62
2023/08/01 10:05:35;;;;;;;;;;;21.10;90.10;;;;;;4170283;28;20058;-60
2023/08/01 10:08:17;;;;;;;;;;;21.10;90.20;;;;;;4171001;28;20402;-57
2023/08/01 10:10:58;;;;;;;;;;;21.10;90.30;;;;;;4175189;28;20009;-58
2023/08/01 10:13:40;;;;;;;;;;;21.10;90.40;;;;;;4170258;28;19951;-57
2023/08/01 10:16:22;;;;;;;;;;;21.20;90.40;;;;;;4165092;28;19932;-60
2023/08/01 10:19:03;;;;;;;;;;;21.20;90.30;;;;;;4156495;28;19932;-57
2023/08/01 10:21:45;;;;;;;;;;;21.20;90.20;;;;;;4170548;28;19990;-52
2023/08/01 10:24:26;;;;;;;;;;;21.30;90.30;;;;;;4169829;28;19932;-59
2023/08/01 10:27:12;;;;;;;;;;;21.30;90.20;;;;;;4170227;28;20067;-52
2023/08/01 10:30:01;;;;;;;;;;;21.40;90.20;;;;;;4170460;28;20067;-53
2023/08/01 10:32:44;;;;;;;;;;;21.40;90.30;;;;;;4158577;28;19931;-51
2023/08/01 10:35:34;;;;;;;;;;;21.40;90.20;;;;;;4170405;28;19936;-52
2023/08/01 10:38:15;;;;;;;;;;;21.50;90.10;;;;;;4169879;28;19932;-53
2023/08/01 10:40:56;;;;;;;;;;;21.50;90.00;;;;;;4153418;28;19936;-53
2023/08/01 10:43:37;;;;;;;;;;;21.50;90.00;;;;;;4170192;28;19936;-53
2023/08/01 10:46:20;;;;;;;;;;;21.40;89.70;;;;;;4168095;28;19936;-54
2023/08/01 10:49:00;;;;;;;;;;;21.40;89.70;;;;;;4157942;28;20402;-56
2023/08/01 10:51:41;;;;;;;;;;;21.40;89.60;;;;;;4189972;28;20366;-53
2023/08/01 10:54:23;;;;;;;;;;;21.40;89.60;;;;;;4176791;28;19931;-53
2023/08/01 10:57:06;;;;;;;;;;;21.30;89.60;;;;;;4174272;28;20296;-56
2023/08/01 10:59:48;;;;;;;;;;;21.30;89.80;;;;;;4172520;28;19958;-53
2023/08/01 11:02:31;;;;;;;;;;;21.30;89.90;;;;;;4171894;28;19936;-54
2023/08/01 11:05:12;;;;;;;;;;;21.30;90.00;;;;;;4160739;28;20021;-52
2023/08/01 11:07:56;;;;;;;;;;;21.30;90.00;;;;;;4173095;28;19932;-51
2023/08/01 11:10:39;;;;;;;;;;;21.30;90.00;;;;;;4141988;28;20104;-55
2023/08/01 11:13:19;;;;;;;;;;;21.30;90.00;;;;;;4165629;28;20070;-54
2023/08/01 11:16:00;;;;;;;;;;;21.30;90.00;;;;;;4173392;28;20009;-55
2023/08/01 11:18:45;;;;;;;;;;;21.40;90.00;;;;;;4173493;28;19947;-55
2023/08/01 11:21:27;;;;;;;;;;;21.40;90.00;;;;;;4173725;28;19948;-55
2023/08/01 11:24:08;;;;;;;;;;;21.40;89.90;;;;;;4156935;28;20410;-55
2023/08/01 11:26:49;;;;;;;;;;;21.40;89.70;;;;;;4172585;28;19939;-54
2023/08/01 11:29:30;;;;;;;;;;;21.40;89.60;;;;;;4173043;28;20391;-54
2023/08/01 11:32:11;;;;;;;;;;;21.40;89.70;;;;;;4173596;28;19973;-55
2023/08/01 11:34:53;;;;;;;;;;;21.40;89.70;;;;;;4172493;28;19931;-60
2023/08/01 11:37:34;;;;;;;;;;;21.40;89.60;;;;;;4173975;28;21375;-56
2023/08/01 11:40:16;;;;;;;;;;;21.50;89.60;;;;;;4155583;28;20014;-52
2023/08/01 11:42:57;;;;;;;;;;;21.50;89.60;;;;;;4163065;28;19959;-55
2023/08/01 11:45:38;;;;;;;;;;;21.50;89.50;;;;;;4173432;28;19966;-60
2023/08/01 11:48:19;;;;;;;;;;;21.50;89.30;;;;;;4172825;28;19947;-57
2023/08/01 11:51:02;;;;;;;;;;;21.50;89.10;;;;;;4172700;28;20075;-56
2023/08/01 11:53:42;;;;;;;;;;;21.60;89.70;;;;;;4172649;28;19935;-52
2023/08/01 11:56:23;;;;;;;;;;;21.60;87.40;;;;;;4159616;28;20010;-50
2023/08/01 11:59:08;;;;;;;;;;;21.60;87.80;;;;;;4155756;28;19936;-46
2023/08/01 12:01:50;;;;;;;;;;;21.70;86.80;;;;;;4165719;28;19936;-55
2023/08/01 12:04:30;;;;;;;;;;;21.70;86.90;;;;;;4171617;28;19947;-47
2023/08/01 12:07:15;;;;;;;;;;;21.70;86.50;;;;;;4172228;28;19947;-50
2023/08/01 12:09:57;;;;;;;;;;;21.70;87.30;;;;;;4199492;28;20141;-53
2023/08/01 12:12:44;;;;;;;;;;;21.70;86.50;;;;;;4176230;28;19974;-49
2023/08/01 12:15:24;;;;;;;;;;;21.70;86.00;;;;;;4188175;28;19935;-49
2023/08/01 12:18:06;;;;;;;;;;;21.80;85.90;;;;;;4188152;28;19967;-48
2023/08/01 12:20:47;;;;;;;;;;;21.80;87.10;;;;;;4188474;28;20037;-48
2023/08/01 12:23:29;;;;;;;;;;;21.80;86.30;;;;;;4171101;28;20055;-48
2023/08/01 12:26:09;;;;;;;;;;;21.80;86.40;;;;;;4170816;28;20058;-51
2023/08/01 12:28:50;;;;;;;;;;;21.80;86.30;;;;;;4171850;28;19935;-49
2023/08/01 12:31:30;;;;;;;;;;;21.90;86.30;;;;;;4158081;28;20098;-48
2023/08/01 12:34:11;;;;;;;;;;;21.90;86.20;;;;;;4168021;28;20395;-47
2023/08/01 12:36:52;;;;;;;;;;;21.90;86.50;;;;;;4170144;28;19950;-52
2023/08/01 12:39:34;;;;;;;;;;;22.10;86.50;;;;;;4156479;28;19990;-51
2023/08/01 12:42:15;;;;;;;;;;;22.10;86.20;;;;;;4159086;28;19953;-52
2023/08/01 12:44:55;;;;;;;;;;;22.10;85.30;;;;;;4170798;28;19948;-51
2023/08/01 12:47:36;;;;;;;;;;;22.20;84.90;;;;;;4154822;28;20062;-49
2023/08/01 12:50:17;;;;;;;;;;;22.20;85.00;;;;;;4171349;28;19932;-50
2023/08/01 12:52:58;;;;;;;;;;;22.10;85.00;;;;;;4156609;28;19932;-49
2023/08/01 12:55:40;;;;;;;;;;;22.10;86.20;;;;;;4108901;28;1789415;-51
2023/08/01 12:58:20;;;;;;;;;;;22.10;85.50;;;;;;4172022;28;19932;-53
2023/08/01 13:01:03;;;;;;;;;;;22.10;85.60;;;;;;4155785;28;19936;-50
2023/08/01 13:03:44;;;;;;;;;;;22.10;85.70;;;;;;4159997;28;19935;-52
2023/08/01 13:06:25;;;;;;;;;;;22.10;85.60;;;;;;4166695;28;19936;-51
2023/08/01 13:09:06;;;;;;;;;;;22.10;85.60;;;;;;4142509;28;19935;-51
2023/08/01 13:11:48;;;;;;;;;;;22.00;85.50;;;;;;4154435;28;19940;-51
2023/08/01 13:14:29;;;;;;;;;;;22.00;85.50;;;;;;4169983;28;19970;-51
2023/08/01 13:17:10;;;;;;;;;;;22.00;85.20;;;;;;4159726;28;19935;-55
2023/08/01 13:19:50;;;;;;;;;;;22.00;85.50;;;;;;4167471;28;20466;-52
2023/08/01 13:22:32;;;;;;;;;;;22.00;85.60;;;;;;4170029;28;20390;-53
2023/08/01 13:25:14;;;;;;;;;;;22.00;85.60;;;;;;4161097;28;19936;-50
2023/08/01 13:27:56;;;;;;;;;;;22.00;85.20;;;;;;4155557;28;19931;-49
2023/08/01 13:30:37;;;;;;;;;;;22.00;85.20;;;;;;4155202;28;20391;-50
2023/08/01 13:33:18;;;;;;;;;;;21.90;85.00;;;;;;4140321;28;19933;-51
2023/08/01 13:35:59;;;;;;;;;;;22.00;84.90;;;;;;4187516;28;19935;-51
2023/08/01 13:38:39;;;;;;;;;;;22.00;84.80;;;;;;4170198;28;20070;-54
2023/08/01 13:41:20;;;;;;;;;;;22.00;84.60;;;;;;4133360;28;20009;-51
2023/08/01 13:44:03;;;;;;;;;;;22.00;84.50;;;;;;4156563;28;19932;-54
2023/08/01 13:46:43;;;;;;;;;;;22.10;85.30;;;;;;4157557;28;20304;-52
2023/08/01 13:49:24;;;;;;;;;;;22.10;84.30;;;;;;4169141;28;20398;-54
2023/08/01 13:52:06;;;;;;;;;;;22.10;84.20;;;;;;4168481;28;20487;-55
2023/08/01 13:54:47;;;;;;;;;;;22.10;84.90;;;;;;4169700;28;20291;-52
2023/08/01 13:57:27;;;;;;;;;;;22.10;83.90;;;;;;4153934;28;19935;-51
2023/08/01 14:00:11;;;;;;;;;;;22.10;84.10;;;;;;4168818;28;20292;-51
2023/08/01 14:02:57;;;;;;;;;;;22.10;84.20;;;;;;4166767;28;19994;-51
2023/08/01 14:05:37;;;;;;;;;;;22.10;84.00;;;;;;4154513;28;19936;-52
2023/08/01 14:08:18;;;;;;;;;;;22.10;84.90;;;;;;4140612;28;19932;-51
2023/08/01 14:10:59;;;;;;;;;;;22.10;83.90;;;;;;4140961;28;19959;-54
2023/08/01 14:13:40;;;;;;;;;;;22.10;83.60;;;;;;4154047;28;20470;-54
2023/08/01 14:16:22;;;;;;;;;;;22.10;83.60;;;;;;4170143;28;20047;-50
2023/08/01 14:19:04;;;;;;;;;;;22.10;83.70;;;;;;4182494;28;19954;-54
2023/08/01 14:21:44;;;;;;;;;;;22.10;83.50;;;;;;4163661;28;19936;-52
2023/08/01 14:24:25;;;;;;;;;;;22.10;83.40;;;;;;4169350;28;19931;-54
2023/08/01 14:27:06;;;;;;;;;;;22.10;83.40;;;;;;4168448;28;19932;-53
2023/08/01 14:29:47;;;;;;;;;;;22.10;83.50;;;;;;4156226;28;20296;-52
2023/08/01 14:32:29;;;;;;;;;;;22.00;83.50;;;;;;4160958;28;20363;-50
2023/08/01 14:35:10;;;;;;;;;;;22.00;84.60;;;;;;4169415;28;19970;-50
2023/08/01 14:37:51;;;;;;;;;;;22.00;83.70;;;;;;4151799;28;20480;-53
2023/08/01 14:40:31;;;;;;;;;;;22.00;83.80;;;;;;4168714;28;19948;-50
2023/08/01 14:43:13;;;;;;;;;;;22.00;83.80;;;;;;4168824;28;19932;-53
2023/08/01 14:45:53;;;;;;;;;;;22.00;84.00;;;;;;4166660;28;19936;-54
2023/08/01 14:48:35;;;;;;;;;;;22.00;84.00;;;;;;4169074;28;19931;-54
2023/08/01 14:51:17;;;;;;;;;;;22.00;84.10;;;;;;4168906;28;20396;-53
2023/08/01 14:53:58;;;;;;;;;;;22.00;84.40;;;;;;4156260;28;19935;-51
2023/08/01 14:56:38;;;;;;;;;;;22.00;84.50;;;;;;4187141;28;19948;-52
2023/08/01 14:59:19;;;;;;;;;;;22.00;84.50;;;;;;4175018;28;19943;-51
2023/08/01 15:02:00;;;;;;;;;;;22.00;84.50;;;;;;4169017;28;20299;-54
2023/08/01 15:04:43;;;;;;;;;;;22.00;84.70;;;;;;4168200;28;19936;-52
2023/08/01 15:07:24;;;;;;;;;;;21.90;84.80;;;;;;4164861;28;20292;-51
2023/08/01 15:10:05;;;;;;;;;;;22.00;85.20;;;;;;4169205;28;19974;-50
2023/08/01 15:12:46;;;;;;;;;;;21.90;85.00;;;;;;4153893;28;20063;-50
2023/08/01 15:15:27;;;;;;;;;;;21.90;85.10;;;;;;4185720;28;19936;-49
2023/08/01 15:18:08;;;;;;;;;;;21.90;85.20;;;;;;4187568;28;19935;-50
2023/08/01 15:20:50;;;;;;;;;;;21.90;85.20;;;;;;4183871;28;19939;-51
2023/08/01 15:23:30;;;;;;;;;;;21.90;85.20;;;;;;4170795;28;20002;-50
2023/08/01 15:26:11;;;;;;;;;;;21.90;85.20;;;;;;4169183;28;19951;-55
2023/08/01 15:28:53;;;;;;;;;;;21.90;85.10;;;;;;4170884;28;19967;-51
2023/08/01 15:31:34;;;;;;;;;;;21.90;85.10;;;;;;4169169;28;20337;-52
2023/08/01 15:34:15;;;;;;;;;;;21.90;85.10;;;;;;4163144;28;20033;-50
2023/08/01 15:36:57;;;;;;;;;;;21.90;85.50;;;;;;4155777;28;19932;-54